Hugh R. Sharp — WDC9608 — position and weather

sailwx.info

Track history (hours):
 
Tides and Currents Weather Stations Pressure Air Temp Water Temp Dewpoint Dewpoint Depression Visibility Wind Speed Wind Dir Waves Ship Positions

Oceanographic research ship Hugh R. Sharp (USA)

Ship's website: http://www.ceoe.udel.edu/marine/rvSharp.shtml

Detailed information on ship capabilities available from University of Delaware's Ocean Information Center.

Owner: Warrior & yGulf Navigation Compan, Chickasaw, AL. More information available from US FCC via Universal Licensing System and Coast Guard Vessel Documentation Center.

Last reported at 2017-Mar-05 04:27 UTC. Time now 2017-Mar-25 09:41 UTC.
Position N 39°52' W 073°59'.
Warning: this ship's position is 20 days out of date.

Length 40 m; draft 3 m.

Type: Other ship. MMSI: 367063060.

Date/timePositionNaut miles runAvg speedWind from/ knotsBaromVisibWave heightAir tempDewpointWater temp
2017-Mar-05 04:27N 39°52' W 073°59'7 7.9
2017-Mar-05 03:33N 39°45' W 073°60'8 7.7
2017-Mar-05 02:33N 39°38' W 074°05'8 7.8
2017-Mar-05 01:32N 39°32' W 074°10'  
2017-Mar-01 06:18N 38°47' W 075°10'0 0.0
2017-Feb-28 09:21N 38°47' W 075°10'0 0.0
2017-Feb-28 08:33N 38°47' W 075°10'0 0.0
2017-Feb-28 07:33N 38°47' W 075°10'0 0.0
2017-Feb-28 06:33N 38°47' W 075°10'0 0.0
2017-Feb-28 05:33N 38°47' W 075°10'0 0.0
2017-Feb-28 04:33N 38°47' W 075°10'0 0.0
2017-Feb-27 14:26N 38°47' W 075°10'0 0.0
2017-Feb-27 13:32N 38°47' W 075°10'0 0.0
2017-Feb-27 12:32N 38°47' W 075°10'0 0.0
2017-Feb-27 11:32N 38°47' W 075°10'0 0.0
2017-Feb-25 14:18N 38°47' W 075°10'0 0.0
2017-Feb-25 13:33N 38°47' W 075°10'0 0.0
2017-Feb-25 12:33N 38°47' W 075°10'0 0.0
2017-Feb-25 11:30N 38°47' W 075°10'0 0.0
2017-Feb-25 10:33N 38°47' W 075°10'0 0.0
2017-Feb-25 09:30N 38°47' W 075°10'0 0.0
2017-Feb-25 08:24N 38°47' W 075°10'0 0.0
2017-Feb-25 07:09N 38°47' W 075°10'0 0.0
2017-Feb-25 05:30N 38°47' W 075°10'0 0.0
2017-Feb-25 04:33N 38°47' W 075°10'0 0.0
2017-Feb-25 03:30N 38°47' W 075°10'0 0.0
2017-Feb-24 12:18N 38°47' W 075°10'0 0.0
2017-Feb-24 11:33N 38°47' W 075°10'0 0.0
2017-Feb-24 10:30N 38°47' W 075°10'0 0.0
2017-Feb-24 09:33N 38°47' W 075°10'0 0.0
2017-Feb-24 08:32N 38°47' W 075°10'11 0.6
2017-Feb-23 14:20N 38°45' W 074°56'2 1.7
2017-Feb-23 13:23N 38°46' W 074°57'7 8.9
2017-Feb-23 12:32N 38°49' W 075°06'3 2.8
2017-Feb-23 11:25N 38°47' W 075°10'0 0.0
2017-Feb-23 10:31N 38°47' W 075°10'0 0.0
2017-Feb-23 09:31N 38°47' W 075°10'0 0.0
2017-Feb-23 08:28N 38°47' W 075°10'  
Track history (hours):
 
Tides and Currents Weather Stations Pressure Air Temp Water Temp Dewpoint Dewpoint Depression Visibility Wind Speed Wind Dir Waves Ship Positions

Oceanographic research ship Hugh R. Sharp (USA)

Ship's website: http://www.ceoe.udel.edu/marine/rvSharp.shtml

Detailed information on ship capabilities available from University of Delaware's Ocean Information Center.

Owner: Warrior & yGulf Navigation Compan, Chickasaw, AL. More information available from US FCC via Universal Licensing System and Coast Guard Vessel Documentation Center.

Last reported at 2017-Mar-05 04:27 UTC. Time now 2017-Mar-25 09:41 UTC.
Position N 39°52' W 073°59'.
Warning: this ship's position is 20 days out of date.

Length 40 m; draft 3 m.

Type: Other ship. MMSI: 367063060.

Date/timePositionNaut miles runAvg speedWind from/ knotsBaromVisibWave heightAir tempDewpointWater temp
2017-Mar-05 04:27N 39°52' W 073°59'7 7.9
2017-Mar-05 03:33N 39°45' W 073°60'8 7.7
2017-Mar-05 02:33N 39°38' W 074°05'8 7.8
2017-Mar-05 01:32N 39°32' W 074°10'  
2017-Mar-01 06:18N 38°47' W 075°10'0 0.0
2017-Feb-28 09:21N 38°47' W 075°10'0 0.0
2017-Feb-28 08:33N 38°47' W 075°10'0 0.0
2017-Feb-28 07:33N 38°47' W 075°10'0 0.0
2017-Feb-28 06:33N 38°47' W 075°10'0 0.0
2017-Feb-28 05:33N 38°47' W 075°10'0 0.0
2017-Feb-28 04:33N 38°47' W 075°10'0 0.0
2017-Feb-27 14:26N 38°47' W 075°10'0 0.0
2017-Feb-27 13:32N 38°47' W 075°10'0 0.0
2017-Feb-27 12:32N 38°47' W 075°10'0 0.0
2017-Feb-27 11:32N 38°47' W 075°10'0 0.0
2017-Feb-25 14:18N 38°47' W 075°10'0 0.0
2017-Feb-25 13:33N 38°47' W 075°10'0 0.0
2017-Feb-25 12:33N 38°47' W 075°10'0 0.0
2017-Feb-25 11:30N 38°47' W 075°10'0 0.0
2017-Feb-25 10:33N 38°47' W 075°10'0 0.0
2017-Feb-25 09:30N 38°47' W 075°10'0 0.0
2017-Feb-25 08:24N 38°47' W 075°10'0 0.0
2017-Feb-25 07:09N 38°47' W 075°10'0 0.0
2017-Feb-25 05:30N 38°47' W 075°10'0 0.0
2017-Feb-25 04:33N 38°47' W 075°10'0 0.0
2017-Feb-25 03:30N 38°47' W 075°10'0 0.0
2017-Feb-24 12:18N 38°47' W 075°10'0 0.0
2017-Feb-24 11:33N 38°47' W 075°10'0 0.0
2017-Feb-24 10:30N 38°47' W 075°10'0 0.0
2017-Feb-24 09:33N 38°47' W 075°10'0 0.0
2017-Feb-24 08:32N 38°47' W 075°10'11 0.6
2017-Feb-23 14:20N 38°45' W 074°56'2 1.7
2017-Feb-23 13:23N 38°46' W 074°57'7 8.9
2017-Feb-23 12:32N 38°49' W 075°06'3 2.8
2017-Feb-23 11:25N 38°47' W 075°10'0 0.0
2017-Feb-23 10:31N 38°47' W 075°10'0 0.0
2017-Feb-23 09:31N 38°47' W 075°10'0 0.0
2017-Feb-23 08:28N 38°47' W 075°10'  

Dump ship's entire track history